sensor_id;sensor_type;location;lat;lon;timestamp;temperature;humidity
20795;DHT22;28087;-33.874;151.240;2022-09-02T00:00:40;18.00;99.90
20795;DHT22;28087;-33.874;151.240;2022-09-02T00:03:16;18.00;99.90
20795;DHT22;28087;-33.874;151.240;2022-09-02T00:06:00;18.00;99.90
20795;DHT22;28087;-33.874;151.240;2022-09-02T00:09:17;18.00;99.90
20795;DHT22;28087;-33.874;151.240;2022-09-02T00:11:56;17.90;99.90
20795;DHT22;28087;-33.874;151.240;2022-09-02T00:14:42;17.90;99.90
20795;DHT22;28087;-33.874;151.240;2022-09-02T00:17:23;17.90;99.90
20795;DHT22;28087;-33.874;151.240;2022-09-02T00:19:59;17.80;99.90
20795;DHT22;28087;-33.874;151.240;2022-09-02T00:22:34;17.80;99.90
20795;DHT22;28087;-33.874;151.240;2022-09-02T00:25:11;17.70;99.90
20795;DHT22;28087;-33.874;151.240;2022-09-02T00:28:45;17.70;99.90
20795;DHT22;28087;-33.874;151.240;2022-09-02T00:31:57;17.70;99.90
20795;DHT22;28087;-33.874;151.240;2022-09-02T00:35:29;17.70;99.90
20795;DHT22;28087;-33.874;151.240;2022-09-02T00:38:10;17.70;99.90
20795;DHT22;28087;-33.874;151.240;2022-09-02T00:41:06;17.70;99.90
20795;DHT22;28087;-33.874;151.240;2022-09-02T00:43:47;17.70;99.90
20795;DHT22;28087;-33.874;151.240;2022-09-02T00:46:24;17.70;99.90
20795;DHT22;28087;-33.874;151.240;2022-09-02T00:49:03;17.60;99.90
20795;DHT22;28087;-33.874;151.240;2022-09-02T00:51:42;17.50;99.90
20795;DHT22;28087;-33.874;151.240;2022-09-02T00:54:21;17.50;99.90
20795;DHT22;28087;-33.874;151.240;2022-09-02T00:56:59;17.60;99.90
20795;DHT22;28087;-33.874;151.240;2022-09-02T00:59:45;17.60;99.90
20795;DHT22;28087;-33.874;151.240;2022-09-02T01:02:22;17.60;99.90
20795;DHT22;28087;-33.874;151.240;2022-09-02T01:05:06;17.60;99.90
20795;DHT22;28087;-33.874;151.240;2022-09-02T01:07:43;17.60;99.90
20795;DHT22;28087;-33.874;151.240;2022-09-02T01:12:57;17.50;99.90
20795;DHT22;28087;-33.874;151.240;2022-09-02T01:15:36;17.40;99.90
20795;DHT22;28087;-33.874;151.240;2022-09-02T01:20:52;17.40;99.90
20795;DHT22;28087;-33.874;151.240;2022-09-02T01:23:35;17.40;99.90
20795;DHT22;28087;-33.874;151.240;2022-09-02T01:26:12;17.40;99.90
20795;DHT22;28087;-33.874;151.240;2022-09-02T01:28:48;17.40;99.90
20795;DHT22;28087;-33.874;151.240;2022-09-02T01:31:23;17.40;99.90
20795;DHT22;28087;-33.874;151.240;2022-09-02T01:34:02;17.80;99.90
20795;DHT22;28087;-33.874;151.240;2022-09-02T01:36:41;17.60;99.90
20795;DHT22;28087;-33.874;151.240;2022-09-02T01:39:19;17.50;99.90
20795;DHT22;28087;-33.874;151.240;2022-09-02T01:41:55;17.50;99.90
20795;DHT22;28087;-33.874;151.240;2022-09-02T01:44:32;17.60;99.90
20795;DHT22;28087;-33.874;151.240;2022-09-02T01:47:09;17.60;99.90
20795;DHT22;28087;-33.874;151.240;2022-09-02T01:49:44;17.50;99.90
20795;DHT22;28087;-33.874;151.240;2022-09-02T01:52:24;17.40;99.90
20795;DHT22;28087;-33.874;151.240;2022-09-02T01:55:05;17.40;99.90
20795;DHT22;28087;-33.874;151.240;2022-09-02T01:57:41;17.50;99.90
20795;DHT22;28087;-33.874;151.240;2022-09-02T02:00:17;17.60;99.90
20795;DHT22;28087;-33.874;151.240;2022-09-02T02:08:21;17.50;99.90
20795;DHT22;28087;-33.874;151.240;2022-09-02T02:11:03;17.50;99.90
20795;DHT22;28087;-33.874;151.240;2022-09-02T02:13:38;17.50;99.90
20795;DHT22;28087;-33.874;151.240;2022-09-02T02:16:14;17.40;99.90
20795;DHT22;28087;-33.874;151.240;2022-09-02T02:18:50;17.40;99.90
20795;DHT22;28087;-33.874;151.240;2022-09-02T02:21:26;17.40;99.90
20795;DHT22;28087;-33.874;151.240;2022-09-02T02:24:02;17.30;99.90
20795;DHT22;28087;-33.874;151.240;2022-09-02T02:26:39;17.20;99.90
20795;DHT22;28087;-33.874;151.240;2022-09-02T02:29:15;17.30;99.90
20795;DHT22;28087;-33.874;151.240;2022-09-02T02:31:51;17.20;99.90
20795;DHT22;28087;-33.874;151.240;2022-09-02T02:34:27;17.30;99.90
20795;DHT22;28087;-33.874;151.240;2022-09-02T02:37:03;17.20;99.90
20795;DHT22;28087;-33.874;151.240;2022-09-02T02:39:39;17.20;99.90
20795;DHT22;28087;-33.874;151.240;2022-09-02T02:42:17;17.10;99.90
20795;DHT22;28087;-33.874;151.240;2022-09-02T02:44:53;17.10;99.90
20795;DHT22;28087;-33.874;151.240;2022-09-02T02:47:28;17.10;99.90
20795;DHT22;28087;-33.874;151.240;2022-09-02T02:50:09;17.20;99.90
20795;DHT22;28087;-33.874;151.240;2022-09-02T02:52:47;17.20;99.90
20795;DHT22;28087;-33.874;151.240;2022-09-02T02:55:24;17.20;99.90
20795;DHT22;28087;-33.874;151.240;2022-09-02T02:58:02;17.10;99.90
20795;DHT22;28087;-33.874;151.240;2022-09-02T03:00:38;17.20;99.90
20795;DHT22;28087;-33.874;151.240;2022-09-02T03:03:15;17.10;99.90
20795;DHT22;28087;-33.874;151.240;2022-09-02T03:05:56;17.10;99.90
20795;DHT22;28087;-33.874;151.240;2022-09-02T03:08:32;17.00;99.90
20795;DHT22;28087;-33.874;151.240;2022-09-02T03:11:09;17.00;99.90
20795;DHT22;28087;-33.874;151.240;2022-09-02T03:13:48;16.90;99.90
20795;DHT22;28087;-33.874;151.240;2022-09-02T03:16:24;17.00;99.90
20795;DHT22;28087;-33.874;151.240;2022-09-02T03:19:02;16.90;99.90
20795;DHT22;28087;-33.874;151.240;2022-09-02T03:21:38;17.00;99.90
20795;DHT22;28087;-33.874;151.240;2022-09-02T03:24:14;17.00;99.90
20795;DHT22;28087;-33.874;151.240;2022-09-02T03:26:49;17.00;99.90
20795;DHT22;28087;-33.874;151.240;2022-09-02T03:29:27;16.90;99.90
20795;DHT22;28087;-33.874;151.240;2022-09-02T03:32:02;16.90;99.90
20795;DHT22;28087;-33.874;151.240;2022-09-02T03:34:39;17.00;99.90
20795;DHT22;28087;-33.874;151.240;2022-09-02T03:37:15;17.00;99.90
20795;DHT22;28087;-33.874;151.240;2022-09-02T03:39:50;17.10;99.90
20795;DHT22;28087;-33.874;151.240;2022-09-02T03:42:26;17.10;99.90
20795;DHT22;28087;-33.874;151.240;2022-09-02T03:45:05;17.00;99.90
20795;DHT22;28087;-33.874;151.240;2022-09-02T03:47:44;17.00;99.90
20795;DHT22;28087;-33.874;151.240;2022-09-02T03:50:28;17.00;99.90
20795;DHT22;28087;-33.874;151.240;2022-09-02T03:53:05;16.90;99.90
20795;DHT22;28087;-33.874;151.240;2022-09-02T03:56:03;16.90;99.90
20795;DHT22;28087;-33.874;151.240;2022-09-02T03:58:43;17.00;99.90
20795;DHT22;28087;-33.874;151.240;2022-09-02T04:01:27;16.90;99.90
20795;DHT22;28087;-33.874;151.240;2022-09-02T04:04:07;17.00;99.90
20795;DHT22;28087;-33.874;151.240;2022-09-02T04:09:19;17.10;99.90
20795;DHT22;28087;-33.874;151.240;2022-09-02T04:11:56;17.20;99.90
20795;DHT22;28087;-33.874;151.240;2022-09-02T04:14:32;17.20;99.90
20795;DHT22;28087;-33.874;151.240;2022-09-02T04:17:10;17.20;99.90
20795;DHT22;28087;-33.874;151.240;2022-09-02T04:19:45;17.30;99.90
20795;DHT22;28087;-33.874;151.240;2022-09-02T04:22:23;17.30;99.90
20795;DHT22;28087;-33.874;151.240;2022-09-02T04:25:01;17.20;99.90
20795;DHT22;28087;-33.874;151.240;2022-09-02T04:27:37;17.20;99.90
20795;DHT22;28087;-33.874;151.240;2022-09-02T04:30:13;17.00;99.90
20795;DHT22;28087;-33.874;151.240;2022-09-02T04:32:53;17.00;99.90
20795;DHT22;28087;-33.874;151.240;2022-09-02T04:35:29;17.00;99.90
20795;DHT22;28087;-33.874;151.240;2022-09-02T04:38:07;17.00;99.90
20795;DHT22;28087;-33.874;151.240;2022-09-02T04:40:44;17.00;99.90
20795;DHT22;28087;-33.874;151.240;2022-09-02T04:43:21;16.90;99.90
20795;DHT22;28087;-33.874;151.240;2022-09-02T04:45:58;16.80;99.90
20795;DHT22;28087;-33.874;151.240;2022-09-02T04:48:37;16.80;99.90
20795;DHT22;28087;-33.874;151.240;2022-09-02T04:51:15;16.80;99.90
20795;DHT22;28087;-33.874;151.240;2022-09-02T04:53:52;16.80;99.90
20795;DHT22;28087;-33.874;151.240;2022-09-02T04:59:05;16.90;99.90
20795;DHT22;28087;-33.874;151.240;2022-09-02T05:01:45;16.90;99.90
20795;DHT22;28087;-33.874;151.240;2022-09-02T05:04:29;16.80;99.90
20795;DHT22;28087;-33.874;151.240;2022-09-02T05:07:26;16.80;99.90
20795;DHT22;28087;-33.874;151.240;2022-09-02T05:10:03;16.70;99.90
20795;DHT22;28087;-33.874;151.240;2022-09-02T05:12:42;16.60;99.90
20795;DHT22;28087;-33.874;151.240;2022-09-02T05:15:21;16.60;99.90
20795;DHT22;28087;-33.874;151.240;2022-09-02T05:17:58;16.50;99.90
20795;DHT22;28087;-33.874;151.240;2022-09-02T05:20:37;16.50;99.90
20795;DHT22;28087;-33.874;151.240;2022-09-02T05:23:15;16.40;99.90
20795;DHT22;28087;-33.874;151.240;2022-09-02T05:25:52;16.40;99.90
20795;DHT22;28087;-33.874;151.240;2022-09-02T05:28:28;16.40;99.90
20795;DHT22;28087;-33.874;151.240;2022-09-02T05:31:05;16.40;99.90
20795;DHT22;28087;-33.874;151.240;2022-09-02T05:33:44;16.30;99.90
20795;DHT22;28087;-33.874;151.240;2022-09-02T05:36:24;16.30;99.90
20795;DHT22;28087;-33.874;151.240;2022-09-02T05:39:00;16.20;99.90
20795;DHT22;28087;-33.874;151.240;2022-09-02T05:41:39;16.20;99.90
20795;DHT22;28087;-33.874;151.240;2022-09-02T05:44:14;16.30;99.90
20795;DHT22;28087;-33.874;151.240;2022-09-02T05:46:50;16.30;99.90
20795;DHT22;28087;-33.874;151.240;2022-09-02T05:49:27;16.20;99.90
20795;DHT22;28087;-33.874;151.240;2022-09-02T05:52:11;16.30;99.90
20795;DHT22;28087;-33.874;151.240;2022-09-02T05:54:50;16.30;99.90
20795;DHT22;28087;-33.874;151.240;2022-09-02T05:57:26;16.30;99.90
20795;DHT22;28087;-33.874;151.240;2022-09-02T06:00:09;16.30;99.90
20795;DHT22;28087;-33.874;151.240;2022-09-02T06:02:57;16.30;99.90
20795;DHT22;28087;-33.874;151.240;2022-09-02T06:05:37;16.20;99.90
20795;DHT22;28087;-33.874;151.240;2022-09-02T06:08:23;16.10;99.90
20795;DHT22;28087;-33.874;151.240;2022-09-02T06:10:59;16.10;99.90
20795;DHT22;28087;-33.874;151.240;2022-09-02T06:13:41;16.00;99.90
20795;DHT22;28087;-33.874;151.240;2022-09-02T06:16:20;15.90;99.90
20795;DHT22;28087;-33.874;151.240;2022-09-02T06:18:57;15.80;99.90
20795;DHT22;28087;-33.874;151.240;2022-09-02T06:21:37;15.80;99.90
20795;DHT22;28087;-33.874;151.240;2022-09-02T06:24:15;15.80;99.90
20795;DHT22;28087;-33.874;151.240;2022-09-02T06:26:53;15.80;99.90
20795;DHT22;28087;-33.874;151.240;2022-09-02T06:29:28;15.80;99.90
20795;DHT22;28087;-33.874;151.240;2022-09-02T06:32:04;15.90;99.90
20795;DHT22;28087;-33.874;151.240;2022-09-02T06:34:41;16.00;99.90
20795;DHT22;28087;-33.874;151.240;2022-09-02T06:37:20;15.90;99.90
20795;DHT22;28087;-33.874;151.240;2022-09-02T06:39:59;16.00;99.90
20795;DHT22;28087;-33.874;151.240;2022-09-02T06:42:35;16.00;99.90
20795;DHT22;28087;-33.874;151.240;2022-09-02T06:45:18;16.10;99.90
20795;DHT22;28087;-33.874;151.240;2022-09-02T06:47:57;16.10;99.90
20795;DHT22;28087;-33.874;151.240;2022-09-02T06:50:43;16.10;99.90
20795;DHT22;28087;-33.874;151.240;2022-09-02T06:53:18;16.10;99.90
20795;DHT22;28087;-33.874;151.240;2022-09-02T06:55:56;16.10;99.90
20795;DHT22;28087;-33.874;151.240;2022-09-02T06:58:32;16.00;99.90
20795;DHT22;28087;-33.874;151.240;2022-09-02T07:01:17;16.00;99.90
20795;DHT22;28087;-33.874;151.240;2022-09-02T07:03:54;16.00;99.90
20795;DHT22;28087;-33.874;151.240;2022-09-02T07:06:46;16.00;99.90
20795;DHT22;28087;-33.874;151.240;2022-09-02T07:09:29;16.00;99.90
20795;DHT22;28087;-33.874;151.240;2022-09-02T07:12:17;16.10;99.90
20795;DHT22;28087;-33.874;151.240;2022-09-02T07:15:07;16.10;99.90
20795;DHT22;28087;-33.874;151.240;2022-09-02T07:17:44;16.20;99.90
20795;DHT22;28087;-33.874;151.240;2022-09-02T07:20:33;16.20;99.90
20795;DHT22;28087;-33.874;151.240;2022-09-02T07:23:09;16.20;99.90
20795;DHT22;28087;-33.874;151.240;2022-09-02T07:25:46;16.10;99.90
20795;DHT22;28087;-33.874;151.240;2022-09-02T07:28:24;16.10;99.90
20795;DHT22;28087;-33.874;151.240;2022-09-02T07:31:00;16.10;99.90
20795;DHT22;28087;-33.874;151.240;2022-09-02T07:33:36;16.10;99.90
20795;DHT22;28087;-33.874;151.240;2022-09-02T07:36:12;16.10;99.90
20795;DHT22;28087;-33.874;151.240;2022-09-02T07:38:51;16.00;99.90
20795;DHT22;28087;-33.874;151.240;2022-09-02T07:41:27;16.00;99.90
20795;DHT22;28087;-33.874;151.240;2022-09-02T07:44:10;16.10;99.90
20795;DHT22;28087;-33.874;151.240;2022-09-02T07:46:46;16.10;99.90
20795;DHT22;28087;-33.874;151.240;2022-09-02T07:49:23;16.10;99.90
20795;DHT22;28087;-33.874;151.240;2022-09-02T07:52:19;16.10;99.90
20795;DHT22;28087;-33.874;151.240;2022-09-02T07:54:56;16.00;99.90
20795;DHT22;28087;-33.874;151.240;2022-09-02T07:57:32;15.90;99.90
20795;DHT22;28087;-33.874;151.240;2022-09-02T08:00:12;15.90;99.90
20795;DHT22;28087;-33.874;151.240;2022-09-02T08:02:51;15.90;99.90
20795;DHT22;28087;-33.874;151.240;2022-09-02T08:05:34;15.80;99.90
20795;DHT22;28087;-33.874;151.240;2022-09-02T08:08:17;15.70;99.90
20795;DHT22;28087;-33.874;151.240;2022-09-02T08:10:59;15.70;99.90
20795;DHT22;28087;-33.874;151.240;2022-09-02T08:13:36;15.60;99.90
20795;DHT22;28087;-33.874;151.240;2022-09-02T08:16:20;15.60;99.90
20795;DHT22;28087;-33.874;151.240;2022-09-02T08:18:57;15.60;99.90
20795;DHT22;28087;-33.874;151.240;2022-09-02T08:21:36;15.60;99.90
20795;DHT22;28087;-33.874;151.240;2022-09-02T08:24:14;15.50;99.90
20795;DHT22;28087;-33.874;151.240;2022-09-02T08:26:58;15.50;99.90
20795;DHT22;28087;-33.874;151.240;2022-09-02T08:29:38;15.60;99.90
20795;DHT22;28087;-33.874;151.240;2022-09-02T08:32:16;15.60;99.90
20795;DHT22;28087;-33.874;151.240;2022-09-02T08:34:52;15.70;99.90
20795;DHT22;28087;-33.874;151.240;2022-09-02T08:37:28;15.70;99.90
20795;DHT22;28087;-33.874;151.240;2022-09-02T08:40:12;15.70;99.90
20795;DHT22;28087;-33.874;151.240;2022-09-02T08:42:49;15.70;99.90
20795;DHT22;28087;-33.874;151.240;2022-09-02T08:45:29;15.70;99.90
20795;DHT22;28087;-33.874;151.240;2022-09-02T08:48:11;15.60;99.90
20795;DHT22;28087;-33.874;151.240;2022-09-02T08:50:54;15.70;99.90
20795;DHT22;28087;-33.874;151.240;2022-09-02T08:53:37;15.70;99.90
20795;DHT22;28087;-33.874;151.240;2022-09-02T08:56:16;15.70;99.90
20795;DHT22;28087;-33.874;151.240;2022-09-02T08:58:52;15.70;99.90
20795;DHT22;28087;-33.874;151.240;2022-09-02T09:01:36;15.70;99.90
20795;DHT22;28087;-33.874;151.240;2022-09-02T09:04:27;15.70;99.90
20795;DHT22;28087;-33.874;151.240;2022-09-02T09:07:19;15.70;99.90
20795;DHT22;28087;-33.874;151.240;2022-09-02T09:10:08;15.80;99.90
20795;DHT22;28087;-33.874;151.240;2022-09-02T09:16:41;15.70;99.90
20795;DHT22;28087;-33.874;151.240;2022-09-02T09:19:26;15.70;99.90
20795;DHT22;28087;-33.874;151.240;2022-09-02T09:22:08;15.80;99.90
20795;DHT22;28087;-33.874;151.240;2022-09-02T09:24:50;15.80;99.90
20795;DHT22;28087;-33.874;151.240;2022-09-02T09:27:25;15.60;99.90
20795;DHT22;28087;-33.874;151.240;2022-09-02T09:30:00;15.70;99.90
20795;DHT22;28087;-33.874;151.240;2022-09-02T09:32:46;15.70;99.90
20795;DHT22;28087;-33.874;151.240;2022-09-02T09:35:26;15.90;99.90
20795;DHT22;28087;-33.874;151.240;2022-09-02T09:38:12;15.90;99.90
20795;DHT22;28087;-33.874;151.240;2022-09-02T09:40:48;15.90;99.90
20795;DHT22;28087;-33.874;151.240;2022-09-02T09:43:29;15.90;99.90
20795;DHT22;28087;-33.874;151.240;2022-09-02T09:46:26;15.90;99.90
20795;DHT22;28087;-33.874;151.240;2022-09-02T09:49:01;15.90;99.90
20795;DHT22;28087;-33.874;151.240;2022-09-02T09:51:54;15.90;99.90
20795;DHT22;28087;-33.874;151.240;2022-09-02T09:54:30;15.90;99.90
20795;DHT22;28087;-33.874;151.240;2022-09-02T09:57:18;16.00;99.90
20795;DHT22;28087;-33.874;151.240;2022-09-02T10:00:24;15.90;99.90
20795;DHT22;28087;-33.874;151.240;2022-09-02T10:03:02;15.90;99.90
20795;DHT22;28087;-33.874;151.240;2022-09-02T10:05:42;16.00;99.90
20795;DHT22;28087;-33.874;151.240;2022-09-02T10:14:00;16.10;99.90
20795;DHT22;28087;-33.874;151.240;2022-09-02T10:16:45;15.90;99.90
20795;DHT22;28087;-33.874;151.240;2022-09-02T10:19:28;15.90;99.90
20795;DHT22;28087;-33.874;151.240;2022-09-02T10:25:58;15.90;99.90
20795;DHT22;28087;-33.874;151.240;2022-09-02T10:34:13;16.00;99.90
20795;DHT22;28087;-33.874;151.240;2022-09-02T10:40:09;15.90;99.90
20795;DHT22;28087;-33.874;151.240;2022-09-02T10:42:57;15.90;99.90
20795;DHT22;28087;-33.874;151.240;2022-09-02T10:45:41;15.90;99.90
20795;DHT22;28087;-33.874;151.240;2022-09-02T10:48:30;16.00;99.90
20795;DHT22;28087;-33.874;151.240;2022-09-02T10:51:14;16.00;99.90
20795;DHT22;28087;-33.874;151.240;2022-09-02T10:54:04;16.00;99.90
20795;DHT22;28087;-33.874;151.240;2022-09-02T10:56:46;16.00;99.90
20795;DHT22;28087;-33.874;151.240;2022-09-02T10:59:30;16.00;99.90
20795;DHT22;28087;-33.874;151.240;2022-09-02T11:02:12;15.90;99.90
20795;DHT22;28087;-33.874;151.240;2022-09-02T11:04:52;15.90;99.90
20795;DHT22;28087;-33.874;151.240;2022-09-02T11:07:38;15.90;99.90
20795;DHT22;28087;-33.874;151.240;2022-09-02T11:10:18;15.90;99.90
20795;DHT22;28087;-33.874;151.240;2022-09-02T11:13:00;15.90;99.90
20795;DHT22;28087;-33.874;151.240;2022-09-02T11:16:04;15.90;99.90
20795;DHT22;28087;-33.874;151.240;2022-09-02T11:18:49;16.00;99.90
20795;DHT22;28087;-33.874;151.240;2022-09-02T11:21:49;16.00;99.90
20795;DHT22;28087;-33.874;151.240;2022-09-02T11:24:32;16.10;99.90
20795;DHT22;28087;-33.874;151.240;2022-09-02T11:27:21;16.00;99.90
20795;DHT22;28087;-33.874;151.240;2022-09-02T11:30:17;16.00;99.90
20795;DHT22;28087;-33.874;151.240;2022-09-02T11:33:09;16.00;99.90
20795;DHT22;28087;-33.874;151.240;2022-09-02T11:35:47;16.00;99.90
20795;DHT22;28087;-33.874;151.240;2022-09-02T11:38:33;16.00;99.90
20795;DHT22;28087;-33.874;151.240;2022-09-02T11:41:29;15.90;99.90
20795;DHT22;28087;-33.874;151.240;2022-09-02T11:44:33;15.90;99.90
20795;DHT22;28087;-33.874;151.240;2022-09-02T11:47:43;15.90;99.90
20795;DHT22;28087;-33.874;151.240;2022-09-02T11:50:34;16.10;99.90
20795;DHT22;28087;-33.874;151.240;2022-09-02T11:53:19;16.10;99.90
20795;DHT22;28087;-33.874;151.240;2022-09-02T11:56:02;16.10;99.90
20795;DHT22;28087;-33.874;151.240;2022-09-02T11:58:46;16.10;99.90
20795;DHT22;28087;-33.874;151.240;2022-09-02T12:01:27;16.10;99.90
20795;DHT22;28087;-33.874;151.240;2022-09-02T12:04:05;16.10;99.90
20795;DHT22;28087;-33.874;151.240;2022-09-02T12:19:38;16.20;99.90
20795;DHT22;28087;-33.874;151.240;2022-09-02T12:22:39;16.20;99.90
20795;DHT22;28087;-33.874;151.240;2022-09-02T12:25:36;16.20;99.90
20795;DHT22;28087;-33.874;151.240;2022-09-02T12:28:27;16.20;99.90
20795;DHT22;28087;-33.874;151.240;2022-09-02T12:31:12;16.10;99.90
20795;DHT22;28087;-33.874;151.240;2022-09-02T12:33:52;16.20;99.90
20795;DHT22;28087;-33.874;151.240;2022-09-02T12:36:49;16.10;99.90
20795;DHT22;28087;-33.874;151.240;2022-09-02T12:39:55;16.20;99.90
20795;DHT22;28087;-33.874;151.240;2022-09-02T12:42:33;15.90;99.90
20795;DHT22;28087;-33.874;151.240;2022-09-02T12:45:23;16.20;99.90
20795;DHT22;28087;-33.874;151.240;2022-09-02T12:48:01;16.20;99.90
20795;DHT22;28087;-33.874;151.240;2022-09-02T12:51:01;16.20;99.90
20795;DHT22;28087;-33.874;151.240;2022-09-02T12:53:40;16.10;99.90
20795;DHT22;28087;-33.874;151.240;2022-09-02T12:56:22;16.20;99.90
20795;DHT22;28087;-33.874;151.240;2022-09-02T12:58:58;16.20;99.90
20795;DHT22;28087;-33.874;151.240;2022-09-02T13:01:40;16.30;99.90
20795;DHT22;28087;-33.874;151.240;2022-09-02T13:04:36;16.30;99.90
20795;DHT22;28087;-33.874;151.240;2022-09-02T13:10:50;16.30;99.90
20795;DHT22;28087;-33.874;151.240;2022-09-02T13:16:54;16.30;99.90
20795;DHT22;28087;-33.874;151.240;2022-09-02T13:26:58;16.10;99.90
20795;DHT22;28087;-33.874;151.240;2022-09-02T13:30:10;16.10;99.90
20795;DHT22;28087;-33.874;151.240;2022-09-02T13:32:56;16.00;99.90
20795;DHT22;28087;-33.874;151.240;2022-09-02T13:35:37;16.10;99.90
20795;DHT22;28087;-33.874;151.240;2022-09-02T13:38:14;15.90;99.90
20795;DHT22;28087;-33.874;151.240;2022-09-02T13:41:00;16.00;99.90
20795;DHT22;28087;-33.874;151.240;2022-09-02T13:44:03;16.00;99.90
20795;DHT22;28087;-33.874;151.240;2022-09-02T13:49:44;15.90;99.90
20795;DHT22;28087;-33.874;151.240;2022-09-02T13:52:43;15.90;99.90
20795;DHT22;28087;-33.874;151.240;2022-09-02T13:56:15;15.80;99.90
20795;DHT22;28087;-33.874;151.240;2022-09-02T13:59:00;15.90;99.90
20795;DHT22;28087;-33.874;151.240;2022-09-02T14:01:44;15.90;99.90
20795;DHT22;28087;-33.874;151.240;2022-09-02T14:04:33;15.80;99.90
20795;DHT22;28087;-33.874;151.240;2022-09-02T14:07:13;15.80;99.90
20795;DHT22;28087;-33.874;151.240;2022-09-02T14:09:49;15.80;99.90
20795;DHT22;28087;-33.874;151.240;2022-09-02T14:12:46;15.80;99.90
20795;DHT22;28087;-33.874;151.240;2022-09-02T14:15:36;15.80;99.90
20795;DHT22;28087;-33.874;151.240;2022-09-02T14:18:21;15.60;99.90
20795;DHT22;28087;-33.874;151.240;2022-09-02T14:21:15;15.70;99.90
20795;DHT22;28087;-33.874;151.240;2022-09-02T14:23:56;15.70;99.90
20795;DHT22;28087;-33.874;151.240;2022-09-02T14:26:40;15.70;99.90
20795;DHT22;28087;-33.874;151.240;2022-09-02T14:29:20;15.70;99.90
20795;DHT22;28087;-33.874;151.240;2022-09-02T14:32:12;15.70;99.90
20795;DHT22;28087;-33.874;151.240;2022-09-02T14:35:21;15.70;99.90
20795;DHT22;28087;-33.874;151.240;2022-09-02T14:41:27;15.60;99.90
20795;DHT22;28087;-33.874;151.240;2022-09-02T14:44:10;15.60;99.90
20795;DHT22;28087;-33.874;151.240;2022-09-02T14:47:03;15.60;99.90
20795;DHT22;28087;-33.874;151.240;2022-09-02T14:50:01;15.50;99.90
20795;DHT22;28087;-33.874;151.240;2022-09-02T14:52:58;15.60;99.90
20795;DHT22;28087;-33.874;151.240;2022-09-02T14:55:57;15.50;99.90
20795;DHT22;28087;-33.874;151.240;2022-09-02T14:58:43;15.40;99.90
20795;DHT22;28087;-33.874;151.240;2022-09-02T15:01:26;15.40;99.90
20795;DHT22;28087;-33.874;151.240;2022-09-02T15:04:02;15.40;99.90
20795;DHT22;28087;-33.874;151.240;2022-09-02T15:06:47;15.40;99.90
20795;DHT22;28087;-33.874;151.240;2022-09-02T15:09:31;15.40;99.90
20795;DHT22;28087;-33.874;151.240;2022-09-02T15:12:24;15.40;99.90
20795;DHT22;28087;-33.874;151.240;2022-09-02T15:15:06;15.40;99.90
20795;DHT22;28087;-33.874;151.240;2022-09-02T15:17:45;15.40;99.90
20795;DHT22;28087;-33.874;151.240;2022-09-02T15:20:47;15.40;99.90
20795;DHT22;28087;-33.874;151.240;2022-09-02T15:23:29;15.40;99.90
20795;DHT22;28087;-33.874;151.240;2022-09-02T15:26:12;15.40;99.90
20795;DHT22;28087;-33.874;151.240;2022-09-02T15:28:57;15.40;99.90
20795;DHT22;28087;-33.874;151.240;2022-09-02T15:31:40;15.40;99.90
20795;DHT22;28087;-33.874;151.240;2022-09-02T15:34:21;15.40;99.90
20795;DHT22;28087;-33.874;151.240;2022-09-02T15:36:57;15.40;99.90
20795;DHT22;28087;-33.874;151.240;2022-09-02T15:39:38;15.40;99.90
20795;DHT22;28087;-33.874;151.240;2022-09-02T15:42:19;15.40;99.90
20795;DHT22;28087;-33.874;151.240;2022-09-02T15:44:57;15.40;99.90
20795;DHT22;28087;-33.874;151.240;2022-09-02T15:47:35;15.40;99.90
20795;DHT22;28087;-33.874;151.240;2022-09-02T15:50:12;15.40;99.90
20795;DHT22;28087;-33.874;151.240;2022-09-02T15:52:50;15.40;99.90
20795;DHT22;28087;-33.874;151.240;2022-09-02T15:55:27;15.40;99.90
20795;DHT22;28087;-33.874;151.240;2022-09-02T15:58:06;15.40;99.90
20795;DHT22;28087;-33.874;151.240;2022-09-02T16:00:43;15.30;99.90
20795;DHT22;28087;-33.874;151.240;2022-09-02T16:03:19;15.40;99.90
20795;DHT22;28087;-33.874;151.240;2022-09-02T16:06:01;15.30;99.90
20795;DHT22;28087;-33.874;151.240;2022-09-02T16:08:37;15.40;99.90
20795;DHT22;28087;-33.874;151.240;2022-09-02T16:11:13;15.40;99.90
20795;DHT22;28087;-33.874;151.240;2022-09-02T16:13:49;15.40;99.90
20795;DHT22;28087;-33.874;151.240;2022-09-02T16:16:26;15.50;99.90
20795;DHT22;28087;-33.874;151.240;2022-09-02T16:19:02;15.40;99.90
20795;DHT22;28087;-33.874;151.240;2022-09-02T16:21:40;15.40;99.90
20795;DHT22;28087;-33.874;151.240;2022-09-02T16:24:16;15.40;99.90
20795;DHT22;28087;-33.874;151.240;2022-09-02T16:26:53;15.40;99.90
20795;DHT22;28087;-33.874;151.240;2022-09-02T16:29:34;15.40;99.90
20795;DHT22;28087;-33.874;151.240;2022-09-02T16:32:13;15.30;99.90
20795;DHT22;28087;-33.874;151.240;2022-09-02T16:34:57;15.30;99.90
20795;DHT22;28087;-33.874;151.240;2022-09-02T16:37:33;15.20;99.90
20795;DHT22;28087;-33.874;151.240;2022-09-02T16:40:09;15.20;99.90
20795;DHT22;28087;-33.874;151.240;2022-09-02T16:42:52;15.20;99.90
20795;DHT22;28087;-33.874;151.240;2022-09-02T16:48:04;15.30;99.90
20795;DHT22;28087;-33.874;151.240;2022-09-02T16:50:40;15.30;99.90
20795;DHT22;28087;-33.874;151.240;2022-09-02T16:53:15;15.30;99.90
20795;DHT22;28087;-33.874;151.240;2022-09-02T16:55:50;15.30;99.90
20795;DHT22;28087;-33.874;151.240;2022-09-02T16:58:27;15.30;99.90
20795;DHT22;28087;-33.874;151.240;2022-09-02T17:01:05;15.30;99.90
20795;DHT22;28087;-33.874;151.240;2022-09-02T17:03:45;17.10;99.90
20795;DHT22;28087;-33.874;151.240;2022-09-02T17:06:21;15.20;99.90
20795;DHT22;28087;-33.874;151.240;2022-09-02T17:08:56;15.20;99.90
20795;DHT22;28087;-33.874;151.240;2022-09-02T17:11:34;15.30;99.90
20795;DHT22;28087;-33.874;151.240;2022-09-02T17:14:12;15.30;99.90
20795;DHT22;28087;-33.874;151.240;2022-09-02T17:16:49;15.30;99.90
20795;DHT22;28087;-33.874;151.240;2022-09-02T17:19:27;15.30;99.90
20795;DHT22;28087;-33.874;151.240;2022-09-02T17:22:05;15.20;99.90
20795;DHT22;28087;-33.874;151.240;2022-09-02T17:24:40;15.20;99.90
20795;DHT22;28087;-33.874;151.240;2022-09-02T17:27:18;15.20;99.90
20795;DHT22;28087;-33.874;151.240;2022-09-02T17:29:53;15.10;99.90